Terminal Aerodrome Forecast
Issued by NWS Shreveport, LA

Home | Current Version | Previous Version | Text Only | Print | Product List | Glossary On
Versions: 1 2 3 4 5 6 7 8 9 10 11 12 13 14 15 16 17 18 19 20
000
FTUS44 KSHV 181611 AAB
TAFTYR
TAF AMD
KTYR 181611Z 1816/1912 14003KT 3SM BR OVC004
      TEMPO 1816/1818 1SM BR OVC002
     FM181800 VRB03KT 5SM BR OVC005
     FM181900 13005KT 6SM BR OVC008
     FM190200 14005KT 1SM BR OVC003
     FM190600 16004KT 1SM BR VCSH OVC003=

USA.gov is the U.S. government's official web portal to all federal, state and local government web resources and services.